sensor_id;sensor_type;location;lat;lon;timestamp;pressure;altitude;pressure_sealevel;temperature;humidity
58739;BME280;44512;53.046;18.604;2023-02-12T00:04:16;103182.47;;;5.03;63.33
58739;BME280;44512;53.046;18.604;2023-02-12T00:14:45;103192.42;;;5.01;63.51
58739;BME280;44512;53.046;18.604;2023-02-12T00:25:13;103216.59;;;5.01;63.57
58739;BME280;44512;53.046;18.604;2023-02-12T00:35:41;103234.63;;;4.99;63.45
58739;BME280;44512;53.046;18.604;2023-02-12T00:46:10;103233.66;;;5.00;63.21
58739;BME280;44512;53.046;18.604;2023-02-12T00:56:38;103264.27;;;4.98;63.02
58739;BME280;44512;53.046;18.604;2023-02-12T01:07:07;103273.48;;;4.93;62.83
58739;BME280;44512;53.046;18.604;2023-02-12T01:17:36;103285.27;;;4.91;62.87
58739;BME280;44512;53.046;18.604;2023-02-12T01:28:03;103285.67;;;4.85;62.62
58739;BME280;44512;53.046;18.604;2023-02-12T01:38:32;103297.48;;;4.82;62.39
58739;BME280;44512;53.046;18.604;2023-02-12T01:49:02;103296.81;;;4.79;62.25
58739;BME280;44512;53.046;18.604;2023-02-12T01:59:29;103327.70;;;4.72;62.33
58739;BME280;44512;53.046;18.604;2023-02-12T02:09:57;103345.42;;;4.60;62.69
58739;BME280;44512;53.046;18.604;2023-02-12T02:41:38;103353.00;;;4.53;62.94
58739;BME280;44512;53.046;18.604;2023-02-12T02:51:55;103370.07;;;4.52;63.04
58739;BME280;44512;53.046;18.604;2023-02-12T03:23:21;103405.90;;;4.51;61.59
58739;BME280;44512;53.046;18.604;2023-02-12T03:44:22;103432.41;;;4.41;61.03
58739;BME280;44512;53.046;18.604;2023-02-12T03:54:41;103454.25;;;4.35;60.76
58739;BME280;44512;53.046;18.604;2023-02-12T04:05:16;103457.58;;;4.25;60.61
58739;BME280;44512;53.046;18.604;2023-02-12T04:15:46;103475.24;;;4.13;60.56
58739;BME280;44512;53.046;18.604;2023-02-12T04:36:40;103485.17;;;3.81;60.75
58739;BME280;44512;53.046;18.604;2023-02-12T04:47:03;103496.61;;;3.69;60.68
58739;BME280;44512;53.046;18.604;2023-02-12T04:57:31;103504.91;;;3.48;61.03
58739;BME280;44512;53.046;18.604;2023-02-12T05:07:59;103535.92;;;3.36;61.20
58739;BME280;44512;53.046;18.604;2023-02-12T05:18:28;103539.20;;;3.26;61.30
58739;BME280;44512;53.046;18.604;2023-02-12T05:28:56;103539.84;;;3.13;61.26
58739;BME280;44512;53.046;18.604;2023-02-12T05:39:25;103554.05;;;2.98;61.56
58739;BME280;44512;53.046;18.604;2023-02-12T05:49:53;103575.24;;;2.85;61.66
58739;BME280;44512;53.046;18.604;2023-02-12T06:00:22;103584.75;;;2.74;61.61
58739;BME280;44512;53.046;18.604;2023-02-12T06:10:50;103600.04;;;2.72;61.59
58739;BME280;44512;53.046;18.604;2023-02-12T06:21:20;103611.05;;;2.66;61.71
58739;BME280;44512;53.046;18.604;2023-02-12T06:31:47;103612.91;;;2.64;62.08
58739;BME280;44512;53.046;18.604;2023-02-12T06:42:15;103622.07;;;2.59;62.57
58739;BME280;44512;53.046;18.604;2023-02-12T06:52:44;103634.48;;;2.60;62.96
58739;BME280;44512;53.046;18.604;2023-02-12T07:03:12;103650.67;;;2.57;63.61
58739;BME280;44512;53.046;18.604;2023-02-12T07:13:43;103653.21;;;2.60;63.98
58739;BME280;44512;53.046;18.604;2023-02-12T07:24:10;103651.94;;;2.68;64.25
58739;BME280;44512;53.046;18.604;2023-02-12T07:34:38;103661.78;;;2.67;64.90
58739;BME280;44512;53.046;18.604;2023-02-12T07:45:07;103680.26;;;2.72;65.57
58739;BME280;44512;53.046;18.604;2023-02-12T07:55:35;103694.05;;;2.81;66.00
58739;BME280;44512;53.046;18.604;2023-02-12T08:06:08;103699.89;;;2.90;66.24
58739;BME280;44512;53.046;18.604;2023-02-12T08:16:36;103700.44;;;2.96;66.39
58739;BME280;44512;53.046;18.604;2023-02-12T08:27:00;103692.09;;;3.02;66.30
58739;BME280;44512;53.046;18.604;2023-02-12T08:37:28;103697.05;;;3.10;66.07
58739;BME280;44512;53.046;18.604;2023-02-12T08:47:57;103687.76;;;3.17;65.57
58739;BME280;44512;53.046;18.604;2023-02-12T08:58:25;103703.59;;;3.22;65.11
58739;BME280;44512;53.046;18.604;2023-02-12T09:08:54;103719.32;;;3.28;65.21
58739;BME280;44512;53.046;18.604;2023-02-12T09:19:23;103726.09;;;3.35;65.20
58739;BME280;44512;53.046;18.604;2023-02-12T09:34:58;103720.40;;;3.41;64.98
58739;BME280;44512;53.046;18.604;2023-02-12T09:45:30;103736.31;;;3.44;64.75
58739;BME280;44512;53.046;18.604;2023-02-12T09:55:55;103738.52;;;3.53;64.93
58739;BME280;44512;53.046;18.604;2023-02-12T10:06:32;103710.53;;;3.59;64.41
58739;BME280;44512;53.046;18.604;2023-02-12T10:27:35;103718.47;;;3.78;64.58
58739;BME280;44512;53.046;18.604;2023-02-12T10:48:22;103701.55;;;3.93;64.51
58739;BME280;44512;53.046;18.604;2023-02-12T10:58:56;103712.89;;;3.98;64.60
58739;BME280;44512;53.046;18.604;2023-02-12T11:09:26;103709.24;;;3.99;64.79
58739;BME280;44512;53.046;18.604;2023-02-12T11:19:42;103716.34;;;4.00;64.56
58739;BME280;44512;53.046;18.604;2023-02-12T11:30:18;103711.73;;;4.02;64.65
58739;BME280;44512;53.046;18.604;2023-02-12T11:40:44;103705.27;;;4.06;64.79
58739;BME280;44512;53.046;18.604;2023-02-12T11:51:08;103695.34;;;4.08;64.96
58739;BME280;44512;53.046;18.604;2023-02-12T12:01:37;103689.88;;;4.10;65.20
58739;BME280;44512;53.046;18.604;2023-02-12T12:33:07;103658.38;;;4.13;65.74
58739;BME280;44512;53.046;18.604;2023-02-12T13:25:31;103626.04;;;4.32;68.51
58739;BME280;44512;53.046;18.604;2023-02-12T13:35:55;103613.23;;;4.37;69.03
58739;BME280;44512;53.046;18.604;2023-02-12T13:56:53;103601.10;;;4.46;69.56
58739;BME280;44512;53.046;18.604;2023-02-12T14:07:18;103602.66;;;4.50;69.98
58739;BME280;44512;53.046;18.604;2023-02-12T14:17:53;103584.05;;;4.47;70.35
58739;BME280;44512;53.046;18.604;2023-02-12T14:59:42;103597.90;;;4.69;72.38
58739;BME280;44512;53.046;18.604;2023-02-12T15:20:44;103586.63;;;4.79;73.17
58739;BME280;44512;53.046;18.604;2023-02-12T15:31:05;103582.80;;;4.83;73.57
58739;BME280;44512;53.046;18.604;2023-02-12T15:41:38;103586.07;;;4.88;73.82
58739;BME280;44512;53.046;18.604;2023-02-12T15:52:07;103590.30;;;4.92;74.03
58739;BME280;44512;53.046;18.604;2023-02-12T16:02:31;103587.23;;;4.98;74.21
58739;BME280;44512;53.046;18.604;2023-02-12T16:12:58;103597.77;;;5.01;74.41
58739;BME280;44512;53.046;18.604;2023-02-12T16:23:27;103592.23;;;5.04;74.55
58739;BME280;44512;53.046;18.604;2023-02-12T16:33:55;103584.00;;;5.07;74.77
58739;BME280;44512;53.046;18.604;2023-02-12T16:44:26;103581.09;;;5.10;74.94
58739;BME280;44512;53.046;18.604;2023-02-12T16:54:52;103581.68;;;5.15;74.95
58739;BME280;44512;53.046;18.604;2023-02-12T17:05:21;103580.71;;;5.16;75.11
58739;BME280;44512;53.046;18.604;2023-02-12T17:15:58;103585.90;;;5.19;75.18
58739;BME280;44512;53.046;18.604;2023-02-12T17:26:17;103576.13;;;5.18;75.41
58739;BME280;44512;53.046;18.604;2023-02-12T17:36:47;103573.45;;;5.18;75.75
58739;BME280;44512;53.046;18.604;2023-02-12T17:47:14;103566.25;;;5.19;76.07
58739;BME280;44512;53.046;18.604;2023-02-12T17:57:43;103558.09;;;5.20;76.26
58739;BME280;44512;53.046;18.604;2023-02-12T18:08:11;103554.36;;;5.23;76.30
58739;BME280;44512;53.046;18.604;2023-02-12T18:18:39;103556.09;;;5.24;76.28
58739;BME280;44512;53.046;18.604;2023-02-12T18:29:08;103565.76;;;5.27;76.16
58739;BME280;44512;53.046;18.604;2023-02-12T18:39:36;103557.70;;;5.27;76.05
58739;BME280;44512;53.046;18.604;2023-02-12T18:50:05;103564.82;;;5.28;75.98
58739;BME280;44512;53.046;18.604;2023-02-12T19:00:33;103554.84;;;5.30;75.94
58739;BME280;44512;53.046;18.604;2023-02-12T19:11:03;103554.84;;;5.30;76.00
58739;BME280;44512;53.046;18.604;2023-02-12T19:21:30;103559.24;;;5.31;76.11
58739;BME280;44512;53.046;18.604;2023-02-12T19:31:58;103567.30;;;5.31;76.26
58739;BME280;44512;53.046;18.604;2023-02-12T19:42:27;103563.65;;;5.32;76.38
58739;BME280;44512;53.046;18.604;2023-02-12T19:52:55;103560.95;;;5.32;76.56
58739;BME280;44512;53.046;18.604;2023-02-12T20:03:24;103555.51;;;5.33;76.66
58739;BME280;44512;53.046;18.604;2023-02-12T20:13:52;103550.78;;;5.37;76.72
58739;BME280;44512;53.046;18.604;2023-02-12T20:24:26;103548.02;;;5.38;76.83
58739;BME280;44512;53.046;18.604;2023-02-12T20:34:52;103535.34;;;5.40;76.94
58739;BME280;44512;53.046;18.604;2023-02-12T20:45:17;103535.17;;;5.43;77.04
58739;BME280;44512;53.046;18.604;2023-02-12T20:55:46;103526.80;;;5.48;77.09
58739;BME280;44512;53.046;18.604;2023-02-12T21:06:14;103524.02;;;5.49;77.17
58739;BME280;44512;53.046;18.604;2023-02-12T21:16:43;103512.98;;;5.54;77.24
58739;BME280;44512;53.046;18.604;2023-02-12T21:27:11;103515.45;;;5.57;77.19
58739;BME280;44512;53.046;18.604;2023-02-12T21:37:39;103517.73;;;5.63;77.24
58739;BME280;44512;53.046;18.604;2023-02-12T21:48:08;103517.73;;;5.63;77.19
58739;BME280;44512;53.046;18.604;2023-02-12T21:58:37;103525.60;;;5.66;77.22
58739;BME280;44512;53.046;18.604;2023-02-12T22:09:07;103523.66;;;5.68;77.19
58739;BME280;44512;53.046;18.604;2023-02-12T22:19:33;103536.16;;;5.69;77.19
58739;BME280;44512;53.046;18.604;2023-02-12T22:30:02;103530.58;;;5.72;77.21
58739;BME280;44512;53.046;18.604;2023-02-12T22:40:30;103526.91;;;5.73;77.19
58739;BME280;44512;53.046;18.604;2023-02-12T22:50:58;103518.77;;;5.75;77.22
58739;BME280;44512;53.046;18.604;2023-02-12T23:01:28;103518.55;;;5.78;77.22
58739;BME280;44512;53.046;18.604;2023-02-12T23:11:55;103508.47;;;5.82;77.16
58739;BME280;44512;53.046;18.604;2023-02-12T23:22:23;103494.84;;;5.85;77.04
58739;BME280;44512;53.046;18.604;2023-02-12T23:32:52;103498.17;;;5.88;76.95
58739;BME280;44512;53.046;18.604;2023-02-12T23:43:20;103484.45;;;5.93;76.88
58739;BME280;44512;53.046;18.604;2023-02-12T23:53:49;103477.16;;;5.95;76.79
